Cruise inventory

FRV Clupea 0292C

Cruise summary report

Cruise Info. 
Ship name (ship code)FRV Clupea (74CU)
Cruise identifier0292C
Cruise period1992-01-20 — 1992-01-29
StatusCompleted
Port of departureFraserburgh, United Kingdom
Port of returnLeith, United Kingdom
ObjectivesTo undertake a hydrochemical survey along the east coast of Scotland, Moray Firth to the Tweed.
Chief scientistPhilip W Balls (Scottish Office Agriculture and Fisheries Department Aberdeen Marine Laboratory)
Cruise reportFRV Clupea 0292C cruise report cl2_92.pdf — access key 'C' (0.06 MB) 
Ocean/sea areas 
GeneralNorth Sea
SpecificThe east coast of Scotland, Moray Firth to the Tweed
Track chartsFRV Clupea 0292C cruise track — trk3773.html
Measurements 
Physical oceanography 
Water bottle stationsQuantity: number of stations = 63
CTD stationsQuantity: number of stations = 109
Chemical oceanography 
PhosphateQuantity: number of stations = 63
Description: 300samples
NitrateQuantity: number of stations = 63
Description: 300samples
AmmoniaQuantity: number of stations = 63
Description: 300samples
SilicateQuantity: number of stations = 63
Description: 300samples
Data held at BODC 
Series/Profiles 
109  CTD/STD cast
Density of the water column
Electrical conductivity of the water column
Vertical spatial coordinates
Salinity of the water column
Temperature of the water column
Density of the water column
Electrical conductivity of the water column
Vertical spatial coordinates
Salinity of the water column
Temperature of the water column

BODC idDate/TimeLocationDoc.
3997991992-01-27 13:16 56° 27' 0" N  2° 10' 18" W  View metadata report for BODC series reference number 399799
3998061992-01-27 13:43 56° 27' 0" N  2° 14' 42" W  View metadata report for BODC series reference number 399806
3998181992-01-27 14:08 56° 27' 0" N  2° 19' 11" W  View metadata report for BODC series reference number 399818
3998311992-01-27 14:32 56° 27' 0" N  2° 23' 35" W  View metadata report for BODC series reference number 399831
3998431992-01-27 14:55 56° 27' 0" N  2° 28' 0" W  View metadata report for BODC series reference number 399843
3998551992-01-27 15:17 56° 27' 0" N  2° 32' 30" W  View metadata report for BODC series reference number 399855
3998671992-01-27 15:39 56° 27' 0" N  2° 35' 48" W  View metadata report for BODC series reference number 399867
3998791992-01-27 15:58 56° 27' 0" N  2° 37' 41" W  View metadata report for BODC series reference number 399879
3998801992-01-27 16:54 56° 19' 59" N  2° 43' 23" W  View metadata report for BODC series reference number 399880
3998921992-01-27 17:10 56° 19' 59" N  2° 40' 59" W  View metadata report for BODC series reference number 399892
3999111992-01-27 17:34 56° 19' 59" N  2° 38' 17" W  View metadata report for BODC series reference number 399911
3999231992-01-27 17:49 56° 19' 59" N  2° 35' 48" W  View metadata report for BODC series reference number 399923
3999351992-01-27 18:06 56° 19' 59" N  2° 32' 30" W  View metadata report for BODC series reference number 399935
3999471992-01-27 18:29 56° 19' 59" N  2° 28' 0" W  View metadata report for BODC series reference number 399947
3999591992-01-27 18:52 56° 19' 59" N  2° 23' 35" W  View metadata report for BODC series reference number 399959
3999601992-01-27 19:13 56° 19' 59" N  2° 19' 11" W  View metadata report for BODC series reference number 399960
3999721992-01-27 19:35 56° 19' 59" N  2° 14' 42" W  View metadata report for BODC series reference number 399972
3999841992-01-27 19:57 56° 19' 59" N  2° 10' 18" W  View metadata report for BODC series reference number 399984
3999961992-01-27 21:22 56° 8' 59" N  2° 10' 0" W  View metadata report for BODC series reference number 399996
4000041992-01-27 21:54 56° 8' 59" N  2° 15' 0" W  View metadata report for BODC series reference number 400004
4000161992-01-27 22:20 56° 8' 59" N  2° 19' 59" W  View metadata report for BODC series reference number 400016
4000281992-01-27 22:47 56° 8' 59" N  2° 23' 59" W  View metadata report for BODC series reference number 400028
4000411992-01-27 23:13 56° 8' 59" N  2° 28' 0" W  View metadata report for BODC series reference number 400041
4000531992-01-27 23:40 56° 8' 59" N  2° 31' 59" W  View metadata report for BODC series reference number 400053
4000651992-01-28 00:04 56° 8' 59" N  2° 36' 0" W  View metadata report for BODC series reference number 400065
3991611992-01-22 08:07 57° 17' 53" N  1° 58' 18" W  View metadata report for BODC series reference number 399161
3991731992-01-23 08:10 57° 7' 30" N  2° 1' 59" W  View metadata report for BODC series reference number 399173
3991851992-01-23 12:10 56° 41' 15" N  2° 24' 36" W  View metadata report for BODC series reference number 399185
3991971992-01-23 12:38 56° 41' 15" N  2° 25' 29" W  View metadata report for BODC series reference number 399197
3992041992-01-23 15:16 56° 27' 15" N  2° 55' 27" W  View metadata report for BODC series reference number 399204
3992161992-01-23 16:07 56° 27' 29" N  2° 51' 38" W  View metadata report for BODC series reference number 399216
3992281992-01-23 16:59 56° 27' 29" N  2° 45' 11" W  View metadata report for BODC series reference number 399228
3992411992-01-23 18:54 56° 22' 11" N  2° 38' 30" W  View metadata report for BODC series reference number 399241
3992531992-01-23 20:09 56° 16' 18" N  2° 33' 53" W  View metadata report for BODC series reference number 399253
3992651992-01-23 20:31 56° 16' 18" N  2° 32' 59" W  View metadata report for BODC series reference number 399265
3992771992-01-23 20:53 56° 16' 18" N  2° 31' 23" W  View metadata report for BODC series reference number 399277
3992891992-01-23 21:26 56° 16' 18" N  2° 28' 0" W  View metadata report for BODC series reference number 399289
3992901992-01-23 22:21 56° 13' 59" N  2° 34' 59" W  View metadata report for BODC series reference number 399290
3993081992-01-23 22:57 56° 12' 0" N  2° 35' 0" W  View metadata report for BODC series reference number 399308
3993211992-01-23 23:45 56° 7' 59" N  2° 35' 1" W  View metadata report for BODC series reference number 399321
3993331992-01-24 00:30 56° 4' 0" N  2° 35' 1" W  View metadata report for BODC series reference number 399333
3993451992-01-24 07:12 56° 2' 30" N  2° 35' 2" W  View metadata report for BODC series reference number 399345
3993571992-01-25 11:41 55° 45' 0" N  1° 50' 48" W  View metadata report for BODC series reference number 399357
3993691992-01-25 12:07 55° 45' 0" N  1° 54' 24" W  View metadata report for BODC series reference number 399369
3993701992-01-25 12:30 55° 45' 0" N  1° 56' 6" W  View metadata report for BODC series reference number 399370
3993821992-01-25 12:48 55° 45' 0" N  1° 57' 0" W  View metadata report for BODC series reference number 399382
3993941992-01-25 13:05 55° 45' 0" N  1° 58' 0" W  View metadata report for BODC series reference number 399394
3994011992-01-25 18:11 55° 58' 0" N  3° 0' 2" W  View metadata report for BODC series reference number 399401
3994131992-01-25 19:06 56° 1' 0" N  3° 0' 1" W  View metadata report for BODC series reference number 399413
3994251992-01-25 19:49 56° 4' 0" N  3° 0' 1" W  View metadata report for BODC series reference number 399425
3994371992-01-25 20:42 56° 7' 59" N  3° 0' 0" W  View metadata report for BODC series reference number 399437
3994491992-01-25 21:34 56° 10' 0" N  3° 0' 0" W  View metadata report for BODC series reference number 399449
3994501992-01-26 08:56 56° 1' 12" N  3° 19' 0" W  View metadata report for BODC series reference number 399450
3994621992-01-26 09:53 56° 2' 59" N  3° 7' 23" W  View metadata report for BODC series reference number 399462
3994741992-01-26 10:37 56° 5' 35" N  2° 58' 9" W  View metadata report for BODC series reference number 399474
3994861992-01-26 11:37 56° 6' 35" N  2° 43' 5" W  View metadata report for BODC series reference number 399486
3994981992-01-26 13:06 56° 16' 18" N  2° 34' 41" W  View metadata report for BODC series reference number 399498
3995051992-01-26 13:28 56° 16' 18" N  2° 33' 53" W  View metadata report for BODC series reference number 399505
3995171992-01-26 13:42 56° 16' 18" N  2° 32' 59" W  View metadata report for BODC series reference number 399517
3995291992-01-26 13:58 56° 16' 18" N  2° 31' 23" W  View metadata report for BODC series reference number 399529
3995301992-01-26 14:25 56° 16' 18" N  2° 28' 0" W  View metadata report for BODC series reference number 399530
3995421992-01-26 14:55 56° 16' 18" N  2° 23' 35" W  View metadata report for BODC series reference number 399542
3995541992-01-26 15:23 56° 16' 18" N  2° 19' 11" W  View metadata report for BODC series reference number 399554
3995661992-01-26 15:50 56° 16' 18" N  2° 14' 42" W  View metadata report for BODC series reference number 399566
3995781992-01-26 16:18 56° 16' 18" N  2° 10' 18" W  View metadata report for BODC series reference number 399578
3995911992-01-26 17:12 56° 22' 11" N  2° 10' 18" W  View metadata report for BODC series reference number 399591
3996091992-01-26 17:37 56° 22' 11" N  2° 14' 42" W  View metadata report for BODC series reference number 399609
3996101992-01-26 18:08 56° 22' 11" N  2° 19' 11" W  View metadata report for BODC series reference number 399610
3996221992-01-26 18:34 56° 22' 11" N  2° 23' 35" W  View metadata report for BODC series reference number 399622
3996341992-01-26 18:59 56° 22' 11" N  2° 28' 0" W  View metadata report for BODC series reference number 399634
3996461992-01-26 19:24 56° 22' 11" N  2° 32' 30" W  View metadata report for BODC series reference number 399646
3996581992-01-26 19:47 56° 22' 11" N  2° 35' 30" W  View metadata report for BODC series reference number 399658
3996711992-01-26 20:13 56° 22' 11" N  2° 38' 30" W  View metadata report for BODC series reference number 399671
3996831992-01-26 20:40 56° 22' 11" N  2° 41' 23" W  View metadata report for BODC series reference number 399683
3996951992-01-26 21:06 56° 22' 11" N  2° 44' 17" W  View metadata report for BODC series reference number 399695
3997021992-01-27 08:29 56° 31' 0" N  2° 37' 41" W  View metadata report for BODC series reference number 399702
3997141992-01-27 08:44 56° 31' 0" N  2° 35' 48" W  View metadata report for BODC series reference number 399714
3997261992-01-27 09:05 56° 31' 0" N  2° 32' 30" W  View metadata report for BODC series reference number 399726
3997381992-01-27 09:31 56° 31' 0" N  2° 28' 0" W  View metadata report for BODC series reference number 399738
3997511992-01-27 09:55 56° 31' 0" N  2° 23' 35" W  View metadata report for BODC series reference number 399751
3997631992-01-27 10:24 56° 31' 0" N  2° 19' 11" W  View metadata report for BODC series reference number 399763
3997751992-01-27 10:50 56° 31' 0" N  2° 14' 42" W  View metadata report for BODC series reference number 399775
3997871992-01-27 11:18 56° 31' 0" N  2° 10' 18" W  View metadata report for BODC series reference number 399787
3988641992-01-20 21:15 57° 34' 0" N  4° 5' 26" W  View metadata report for BODC series reference number 398864
3988761992-01-20 22:11 57° 32' 59" N  4° 7' 12" W  View metadata report for BODC series reference number 398876
3988881992-01-21 00:45 57° 29' 51" N  4° 15' 29" W  View metadata report for BODC series reference number 398888
3989071992-01-21 02:35 57° 36' 51" N  3° 58' 5" W  View metadata report for BODC series reference number 398907
3989191992-01-21 03:28 57° 39' 35" N  3° 49' 18" W  View metadata report for BODC series reference number 398919
3989201992-01-21 04:24 57° 42' 42" N  3° 41' 30" W  View metadata report for BODC series reference number 398920
3989321992-01-21 05:29 57° 46' 18" N  3° 33' 36" W  View metadata report for BODC series reference number 398932
3989441992-01-21 06:24 57° 49' 59" N  3° 27' 18" W  View metadata report for BODC series reference number 398944
3989561992-01-21 08:15 57° 46' 2" N  3° 6' 0" W  View metadata report for BODC series reference number 398956
3989681992-01-21 08:52 57° 44' 44" N  3° 6' 0" W  View metadata report for BODC series reference number 398968
3989811992-01-21 09:25 57° 42' 44" N  3° 6' 1" W  View metadata report for BODC series reference number 398981
3989931992-01-21 09:51 57° 41' 48" N  3° 6' 1" W  View metadata report for BODC series reference number 398993
3990071992-01-21 10:17 57° 41' 15" N  3° 6' 2" W  View metadata report for BODC series reference number 399007
3990191992-01-21 14:50 57° 42' 6" N  2° 0' 2" W  View metadata report for BODC series reference number 399019
3990201992-01-21 15:14 57° 42' 38" N  2° 0' 1" W  View metadata report for BODC series reference number 399020
3990321992-01-21 15:39 57° 43' 41" N  2° 0' 1" W  View metadata report for BODC series reference number 399032
3990441992-01-21 16:09 57° 45' 18" N  2° 0' 0" W  View metadata report for BODC series reference number 399044
3990561992-01-21 16:46 57° 47' 32" N  2° 0' 0" W  View metadata report for BODC series reference number 399056
3990681992-01-22 00:31 57° 10' 0" N  2° 3' 36" W  View metadata report for BODC series reference number 399068
3990811992-01-22 01:12 57° 10' 0" N  2° 2' 41" W  View metadata report for BODC series reference number 399081
3990931992-01-22 01:43 57° 10' 0" N  2° 1' 47" W  View metadata report for BODC series reference number 399093
3991001992-01-22 02:10 57° 10' 0" N  1° 59' 42" W  View metadata report for BODC series reference number 399100
3991121992-01-22 03:28 57° 7' 30" N  1° 58' 14" W  View metadata report for BODC series reference number 399112
3991241992-01-22 04:08 57° 7' 30" N  2° 0' 15" W  View metadata report for BODC series reference number 399124
3991361992-01-22 04:44 57° 7' 30" N  2° 1' 0" W  View metadata report for BODC series reference number 399136
3991481992-01-22 07:10 57° 17' 23" N  1° 58' 5" W  View metadata report for BODC series reference number 399148